sensor_id;sensor_type;location;lat;lon;timestamp;P1;durP1;ratioP1;P2;durP2;ratioP2
51020;SDS011;38907;45.562;8.856;2023-04-08T00:00:32;38.05;;;25.63;;
51020;SDS011;38907;45.562;8.856;2023-04-08T00:05:34;40.70;;;26.90;;
51020;SDS011;38907;45.562;8.856;2023-04-08T00:10:35;43.92;;;29.60;;
51020;SDS011;38907;45.562;8.856;2023-04-08T00:15:39;44.65;;;27.83;;
51020;SDS011;38907;45.562;8.856;2023-04-08T00:20:41;44.95;;;29.05;;
51020;SDS011;38907;45.562;8.856;2023-04-08T00:25:43;42.20;;;27.55;;
51020;SDS011;38907;45.562;8.856;2023-04-08T00:30:46;40.38;;;27.20;;
51020;SDS011;38907;45.562;8.856;2023-04-08T00:35:48;43.97;;;27.65;;
51020;SDS011;38907;45.562;8.856;2023-04-08T00:40:50;43.00;;;27.98;;
51020;SDS011;38907;45.562;8.856;2023-04-08T00:45:53;45.30;;;27.13;;
51020;SDS011;38907;45.562;8.856;2023-04-08T00:50:56;45.97;;;27.08;;
51020;SDS011;38907;45.562;8.856;2023-04-08T00:55:58;37.88;;;25.98;;
51020;SDS011;38907;45.562;8.856;2023-04-08T01:01:02;41.92;;;26.60;;
51020;SDS011;38907;45.562;8.856;2023-04-08T01:06:09;55.33;;;30.35;;
51020;SDS011;38907;45.562;8.856;2023-04-08T01:11:19;46.35;;;28.55;;
51020;SDS011;38907;45.562;8.856;2023-04-08T01:16:23;44.45;;;28.23;;
51020;SDS011;38907;45.562;8.856;2023-04-08T01:21:26;43.47;;;26.42;;
51020;SDS011;38907;45.562;8.856;2023-04-08T01:26:30;43.37;;;27.20;;
51020;SDS011;38907;45.562;8.856;2023-04-08T01:36:36;46.42;;;28.85;;
51020;SDS011;38907;45.562;8.856;2023-04-08T01:41:41;56.22;;;31.08;;
51020;SDS011;38907;45.562;8.856;2023-04-08T01:51:45;46.85;;;28.05;;
51020;SDS011;38907;45.562;8.856;2023-04-08T01:56:50;50.22;;;28.67;;
51020;SDS011;38907;45.562;8.856;2023-04-08T02:01:55;47.83;;;29.30;;
51020;SDS011;38907;45.562;8.856;2023-04-08T02:06:58;47.95;;;28.52;;
51020;SDS011;38907;45.562;8.856;2023-04-08T02:12:02;45.93;;;29.70;;
51020;SDS011;38907;45.562;8.856;2023-04-08T02:17:07;43.97;;;27.40;;
51020;SDS011;38907;45.562;8.856;2023-04-08T02:22:12;45.80;;;26.92;;
51020;SDS011;38907;45.562;8.856;2023-04-08T02:27:21;43.47;;;27.45;;
51020;SDS011;38907;45.562;8.856;2023-04-08T02:32:24;47.17;;;28.85;;
51020;SDS011;38907;45.562;8.856;2023-04-08T02:37:28;45.08;;;26.67;;
51020;SDS011;38907;45.562;8.856;2023-04-08T02:42:32;46.15;;;27.10;;
51020;SDS011;38907;45.562;8.856;2023-04-08T02:47:33;45.90;;;28.80;;
51020;SDS011;38907;45.562;8.856;2023-04-08T02:52:35;45.53;;;25.88;;
51020;SDS011;38907;45.562;8.856;2023-04-08T02:57:39;41.13;;;25.42;;
51020;SDS011;38907;45.562;8.856;2023-04-08T03:02:42;43.28;;;26.70;;
51020;SDS011;38907;45.562;8.856;2023-04-08T03:07:44;47.83;;;27.67;;
51020;SDS011;38907;45.562;8.856;2023-04-08T03:12:47;47.92;;;27.13;;
51020;SDS011;38907;45.562;8.856;2023-04-08T03:17:49;44.05;;;27.60;;
51020;SDS011;38907;45.562;8.856;2023-04-08T03:22:51;52.17;;;27.92;;
51020;SDS011;38907;45.562;8.856;2023-04-08T03:27:54;42.40;;;25.13;;
51020;SDS011;38907;45.562;8.856;2023-04-08T03:32:58;44.83;;;27.05;;
51020;SDS011;38907;45.562;8.856;2023-04-08T03:38:00;41.60;;;25.13;;
51020;SDS011;38907;45.562;8.856;2023-04-08T03:43:03;46.88;;;26.90;;
51020;SDS011;38907;45.562;8.856;2023-04-08T03:48:07;42.35;;;25.10;;
51020;SDS011;38907;45.562;8.856;2023-04-08T03:53:09;46.72;;;26.77;;
51020;SDS011;38907;45.562;8.856;2023-04-08T03:58:13;43.92;;;26.60;;
51020;SDS011;38907;45.562;8.856;2023-04-08T04:03:15;45.50;;;26.98;;
51020;SDS011;38907;45.562;8.856;2023-04-08T04:08:17;44.53;;;27.42;;
51020;SDS011;38907;45.562;8.856;2023-04-08T04:13:20;43.40;;;25.52;;
51020;SDS011;38907;45.562;8.856;2023-04-08T04:18:22;44.42;;;25.15;;
51020;SDS011;38907;45.562;8.856;2023-04-08T04:23:24;45.38;;;25.85;;
51020;SDS011;38907;45.562;8.856;2023-04-08T04:28:27;41.95;;;25.42;;
51020;SDS011;38907;45.562;8.856;2023-04-08T04:33:29;42.28;;;25.27;;
51020;SDS011;38907;45.562;8.856;2023-04-08T04:38:31;38.78;;;25.35;;
51020;SDS011;38907;45.562;8.856;2023-04-08T04:43:34;47.70;;;29.42;;
51020;SDS011;38907;45.562;8.856;2023-04-08T04:48:36;43.78;;;26.48;;
51020;SDS011;38907;45.562;8.856;2023-04-08T04:53:38;43.58;;;26.65;;
51020;SDS011;38907;45.562;8.856;2023-04-08T04:58:41;48.25;;;28.63;;
51020;SDS011;38907;45.562;8.856;2023-04-08T05:03:43;50.83;;;28.42;;
51020;SDS011;38907;45.562;8.856;2023-04-08T05:08:45;46.58;;;29.15;;
51020;SDS011;38907;45.562;8.856;2023-04-08T05:13:48;61.42;;;35.03;;
51020;SDS011;38907;45.562;8.856;2023-04-08T05:18:50;63.22;;;36.22;;
51020;SDS011;38907;45.562;8.856;2023-04-08T05:23:52;52.75;;;30.33;;
51020;SDS011;38907;45.562;8.856;2023-04-08T05:28:55;58.47;;;30.88;;
51020;SDS011;38907;45.562;8.856;2023-04-08T05:33:57;57.58;;;32.28;;
51020;SDS011;38907;45.562;8.856;2023-04-08T05:38:59;55.58;;;30.85;;
51020;SDS011;38907;45.562;8.856;2023-04-08T05:44:02;51.20;;;28.58;;
51020;SDS011;38907;45.562;8.856;2023-04-08T05:49:04;53.00;;;30.17;;
51020;SDS011;38907;45.562;8.856;2023-04-08T05:54:06;53.78;;;30.73;;
51020;SDS011;38907;45.562;8.856;2023-04-08T05:59:10;56.67;;;32.75;;
51020;SDS011;38907;45.562;8.856;2023-04-08T06:04:12;50.20;;;31.17;;
51020;SDS011;38907;45.562;8.856;2023-04-08T06:09:14;53.78;;;30.40;;
51020;SDS011;38907;45.562;8.856;2023-04-08T06:14:17;51.88;;;29.98;;
51020;SDS011;38907;45.562;8.856;2023-04-08T06:19:19;54.28;;;31.17;;
51020;SDS011;38907;45.562;8.856;2023-04-08T06:24:21;62.72;;;35.58;;
51020;SDS011;38907;45.562;8.856;2023-04-08T06:29:24;54.67;;;30.77;;
51020;SDS011;38907;45.562;8.856;2023-04-08T06:34:27;56.88;;;32.72;;
51020;SDS011;38907;45.562;8.856;2023-04-08T06:39:29;51.47;;;31.50;;
51020;SDS011;38907;45.562;8.856;2023-04-08T06:44:32;53.95;;;33.90;;
51020;SDS011;38907;45.562;8.856;2023-04-08T06:49:34;54.22;;;32.08;;
51020;SDS011;38907;45.562;8.856;2023-04-08T06:54:36;51.03;;;31.13;;
51020;SDS011;38907;45.562;8.856;2023-04-08T06:59:39;51.70;;;30.13;;
51020;SDS011;38907;45.562;8.856;2023-04-08T07:04:41;45.28;;;28.90;;
51020;SDS011;38907;45.562;8.856;2023-04-08T07:09:43;48.42;;;28.92;;
51020;SDS011;38907;45.562;8.856;2023-04-08T07:14:47;46.33;;;28.25;;
51020;SDS011;38907;45.562;8.856;2023-04-08T07:19:48;48.13;;;28.98;;
51020;SDS011;38907;45.562;8.856;2023-04-08T07:24:50;47.83;;;28.45;;
51020;SDS011;38907;45.562;8.856;2023-04-08T07:29:53;47.92;;;28.02;;
51020;SDS011;38907;45.562;8.856;2023-04-08T07:34:55;45.38;;;28.13;;
51020;SDS011;38907;45.562;8.856;2023-04-08T07:40:00;45.28;;;26.55;;
51020;SDS011;38907;45.562;8.856;2023-04-08T07:45:04;44.17;;;25.13;;
51020;SDS011;38907;45.562;8.856;2023-04-08T07:50:07;41.05;;;26.00;;
51020;SDS011;38907;45.562;8.856;2023-04-08T07:55:09;43.80;;;25.55;;
51020;SDS011;38907;45.562;8.856;2023-04-08T08:00:13;48.90;;;29.15;;
51020;SDS011;38907;45.562;8.856;2023-04-08T08:05:19;40.45;;;25.52;;
51020;SDS011;38907;45.562;8.856;2023-04-08T08:10:24;43.42;;;25.73;;
51020;SDS011;38907;45.562;8.856;2023-04-08T08:16:06;37.75;;;24.13;;
51020;SDS011;38907;45.562;8.856;2023-04-08T08:21:10;38.63;;;24.27;;
51020;SDS011;38907;45.562;8.856;2023-04-08T08:26:12;38.60;;;23.33;;
51020;SDS011;38907;45.562;8.856;2023-04-08T08:31:15;36.35;;;22.75;;
51020;SDS011;38907;45.562;8.856;2023-04-08T08:36:18;38.30;;;24.25;;
51020;SDS011;38907;45.562;8.856;2023-04-08T08:41:20;39.60;;;25.15;;
51020;SDS011;38907;45.562;8.856;2023-04-08T08:46:23;42.88;;;26.65;;
51020;SDS011;38907;45.562;8.856;2023-04-08T08:51:25;39.35;;;25.73;;
51020;SDS011;38907;45.562;8.856;2023-04-08T08:56:28;38.65;;;25.27;;
51020;SDS011;38907;45.562;8.856;2023-04-08T09:01:33;42.42;;;26.27;;
51020;SDS011;38907;45.562;8.856;2023-04-08T09:06:36;41.60;;;27.17;;
51020;SDS011;38907;45.562;8.856;2023-04-08T09:11:39;41.13;;;25.73;;
51020;SDS011;38907;45.562;8.856;2023-04-08T09:21:47;40.45;;;26.33;;
51020;SDS011;38907;45.562;8.856;2023-04-08T09:27:05;37.38;;;25.17;;
51020;SDS011;38907;45.562;8.856;2023-04-08T09:32:08;34.13;;;22.85;;
51020;SDS011;38907;45.562;8.856;2023-04-08T09:37:10;34.38;;;21.77;;
51020;SDS011;38907;45.562;8.856;2023-04-08T09:42:12;39.47;;;23.67;;
51020;SDS011;38907;45.562;8.856;2023-04-08T09:47:18;39.05;;;23.80;;
51020;SDS011;38907;45.562;8.856;2023-04-08T09:52:28;32.42;;;22.80;;
51020;SDS011;38907;45.562;8.856;2023-04-08T09:57:36;34.92;;;22.33;;
51020;SDS011;38907;45.562;8.856;2023-04-08T10:02:47;27.15;;;18.15;;
51020;SDS011;38907;45.562;8.856;2023-04-08T10:07:55;26.98;;;18.75;;
51020;SDS011;38907;45.562;8.856;2023-04-08T10:12:57;26.17;;;17.88;;
51020;SDS011;38907;45.562;8.856;2023-04-08T10:23:52;25.55;;;17.17;;
51020;SDS011;38907;45.562;8.856;2023-04-08T10:34:49;20.70;;;13.30;;
51020;SDS011;38907;45.562;8.856;2023-04-08T10:39:53;20.02;;;14.02;;
51020;SDS011;38907;45.562;8.856;2023-04-08T10:44:58;16.92;;;11.38;;
51020;SDS011;38907;45.562;8.856;2023-04-08T10:50:12;16.08;;;11.45;;
51020;SDS011;38907;45.562;8.856;2023-04-08T10:55:14;14.98;;;10.48;;
51020;SDS011;38907;45.562;8.856;2023-04-08T11:00:17;18.50;;;10.07;;
51020;SDS011;38907;45.562;8.856;2023-04-08T11:05:22;15.93;;;9.90;;
51020;SDS011;38907;45.562;8.856;2023-04-08T11:10:24;16.67;;;10.43;;
51020;SDS011;38907;45.562;8.856;2023-04-08T11:15:28;18.83;;;11.00;;
51020;SDS011;38907;45.562;8.856;2023-04-08T11:20:32;19.02;;;11.45;;
51020;SDS011;38907;45.562;8.856;2023-04-08T11:25:36;14.20;;;10.30;;
51020;SDS011;38907;45.562;8.856;2023-04-08T11:30:38;16.00;;;9.10;;
51020;SDS011;38907;45.562;8.856;2023-04-08T11:35:42;19.07;;;9.43;;
51020;SDS011;38907;45.562;8.856;2023-04-08T11:40:51;14.43;;;8.55;;
51020;SDS011;38907;45.562;8.856;2023-04-08T11:45:53;17.45;;;9.07;;
51020;SDS011;38907;45.562;8.856;2023-04-08T11:51:02;13.07;;;8.30;;
51020;SDS011;38907;45.562;8.856;2023-04-08T11:56:17;14.52;;;7.97;;
51020;SDS011;38907;45.562;8.856;2023-04-08T12:01:19;11.20;;;7.80;;
51020;SDS011;38907;45.562;8.856;2023-04-08T12:06:23;12.82;;;7.90;;
51020;SDS011;38907;45.562;8.856;2023-04-08T12:11:26;15.60;;;8.05;;
51020;SDS011;38907;45.562;8.856;2023-04-08T12:16:28;15.43;;;7.60;;
51020;SDS011;38907;45.562;8.856;2023-04-08T12:21:31;13.52;;;8.85;;
51020;SDS011;38907;45.562;8.856;2023-04-08T12:26:34;14.25;;;8.57;;
51020;SDS011;38907;45.562;8.856;2023-04-08T12:31:35;13.77;;;8.23;;
51020;SDS011;38907;45.562;8.856;2023-04-08T12:36:39;12.38;;;7.57;;
51020;SDS011;38907;45.562;8.856;2023-04-08T12:41:41;13.23;;;7.97;;
51020;SDS011;38907;45.562;8.856;2023-04-08T12:46:42;13.60;;;7.72;;
51020;SDS011;38907;45.562;8.856;2023-04-08T12:51:46;20.30;;;8.23;;
51020;SDS011;38907;45.562;8.856;2023-04-08T12:56:48;10.13;;;6.78;;
51020;SDS011;38907;45.562;8.856;2023-04-08T13:01:50;14.55;;;7.93;;
51020;SDS011;38907;45.562;8.856;2023-04-08T13:06:53;12.07;;;7.68;;
51020;SDS011;38907;45.562;8.856;2023-04-08T13:11:56;13.48;;;7.53;;
51020;SDS011;38907;45.562;8.856;2023-04-08T13:16:58;13.48;;;8.15;;
51020;SDS011;38907;45.562;8.856;2023-04-08T13:22:01;18.98;;;7.88;;
51020;SDS011;38907;45.562;8.856;2023-04-08T13:27:04;11.77;;;7.40;;
51020;SDS011;38907;45.562;8.856;2023-04-08T13:32:06;14.10;;;8.00;;
51020;SDS011;38907;45.562;8.856;2023-04-08T13:37:09;10.47;;;7.17;;
51020;SDS011;38907;45.562;8.856;2023-04-08T13:42:11;11.77;;;7.20;;
51020;SDS011;38907;45.562;8.856;2023-04-08T13:47:14;15.68;;;8.05;;
51020;SDS011;38907;45.562;8.856;2023-04-08T13:52:18;13.97;;;7.97;;
51020;SDS011;38907;45.562;8.856;2023-04-08T13:57:21;11.55;;;7.30;;
51020;SDS011;38907;45.562;8.856;2023-04-08T14:02:23;10.80;;;7.30;;
51020;SDS011;38907;45.562;8.856;2023-04-08T14:07:26;10.77;;;7.50;;
51020;SDS011;38907;45.562;8.856;2023-04-08T14:12:29;13.85;;;7.30;;
51020;SDS011;38907;45.562;8.856;2023-04-08T14:17:31;16.10;;;8.55;;
51020;SDS011;38907;45.562;8.856;2023-04-08T14:22:36;11.45;;;6.70;;
51020;SDS011;38907;45.562;8.856;2023-04-08T14:27:38;12.98;;;6.22;;
51020;SDS011;38907;45.562;8.856;2023-04-08T14:32:40;10.07;;;6.55;;
51020;SDS011;38907;45.562;8.856;2023-04-08T14:37:44;10.45;;;6.22;;
51020;SDS011;38907;45.562;8.856;2023-04-08T14:42:46;10.30;;;5.88;;
51020;SDS011;38907;45.562;8.856;2023-04-08T14:47:48;9.80;;;5.95;;
51020;SDS011;38907;45.562;8.856;2023-04-08T14:52:52;8.00;;;5.63;;
51020;SDS011;38907;45.562;8.856;2023-04-08T14:57:54;11.68;;;5.53;;
51020;SDS011;38907;45.562;8.856;2023-04-08T15:02:57;8.57;;;5.33;;
51020;SDS011;38907;45.562;8.856;2023-04-08T15:08:00;9.93;;;5.43;;
51020;SDS011;38907;45.562;8.856;2023-04-08T15:13:02;9.68;;;6.15;;
51020;SDS011;38907;45.562;8.856;2023-04-08T15:18:04;12.20;;;5.93;;
51020;SDS011;38907;45.562;8.856;2023-04-08T15:23:08;11.02;;;5.57;;
51020;SDS011;38907;45.562;8.856;2023-04-08T15:28:10;8.45;;;5.45;;
51020;SDS011;38907;45.562;8.856;2023-04-08T15:33:12;20.70;;;11.03;;
51020;SDS011;38907;45.562;8.856;2023-04-08T15:38:16;8.05;;;5.57;;
51020;SDS011;38907;45.562;8.856;2023-04-08T15:43:19;9.48;;;5.50;;
51020;SDS011;38907;45.562;8.856;2023-04-08T15:48:21;10.87;;;5.43;;
51020;SDS011;38907;45.562;8.856;2023-04-08T15:53:24;14.20;;;6.27;;
51020;SDS011;38907;45.562;8.856;2023-04-08T15:58:26;8.27;;;5.60;;
51020;SDS011;38907;45.562;8.856;2023-04-08T16:03:29;10.47;;;6.60;;
51020;SDS011;38907;45.562;8.856;2023-04-08T16:08:33;12.30;;;5.40;;
51020;SDS011;38907;45.562;8.856;2023-04-08T16:13:36;6.88;;;5.15;;
51020;SDS011;38907;45.562;8.856;2023-04-08T16:18:41;11.13;;;6.10;;
51020;SDS011;38907;45.562;8.856;2023-04-08T16:28:47;9.48;;;5.93;;
51020;SDS011;38907;45.562;8.856;2023-04-08T16:33:50;7.80;;;5.47;;
51020;SDS011;38907;45.562;8.856;2023-04-08T16:38:52;12.63;;;7.50;;
51020;SDS011;38907;45.562;8.856;2023-04-08T16:43:55;8.90;;;5.83;;
51020;SDS011;38907;45.562;8.856;2023-04-08T16:48:58;14.20;;;5.72;;
51020;SDS011;38907;45.562;8.856;2023-04-08T16:54:00;9.67;;;6.23;;
51020;SDS011;38907;45.562;8.856;2023-04-08T16:59:03;9.27;;;6.25;;
51020;SDS011;38907;45.562;8.856;2023-04-08T17:04:06;12.07;;;5.78;;
51020;SDS011;38907;45.562;8.856;2023-04-08T17:09:08;8.60;;;6.13;;
51020;SDS011;38907;45.562;8.856;2023-04-08T17:14:11;10.82;;;6.20;;
51020;SDS011;38907;45.562;8.856;2023-04-08T17:19:14;11.68;;;5.95;;
51020;SDS011;38907;45.562;8.856;2023-04-08T17:29:20;15.07;;;6.30;;
51020;SDS011;38907;45.562;8.856;2023-04-08T17:34:22;9.40;;;6.00;;
51020;SDS011;38907;45.562;8.856;2023-04-08T17:39:25;7.38;;;5.80;;
51020;SDS011;38907;45.562;8.856;2023-04-08T17:44:28;10.57;;;6.32;;
51020;SDS011;38907;45.562;8.856;2023-04-08T17:49:31;14.30;;;6.13;;
51020;SDS011;38907;45.562;8.856;2023-04-08T17:54:33;12.98;;;5.78;;
51020;SDS011;38907;45.562;8.856;2023-04-08T17:59:36;8.97;;;6.03;;
51020;SDS011;38907;45.562;8.856;2023-04-08T18:04:39;18.17;;;7.07;;
51020;SDS011;38907;45.562;8.856;2023-04-08T18:09:41;10.27;;;6.57;;
51020;SDS011;38907;45.562;8.856;2023-04-08T18:19:48;11.85;;;7.45;;
51020;SDS011;38907;45.562;8.856;2023-04-08T18:24:50;18.13;;;7.40;;
51020;SDS011;38907;45.562;8.856;2023-04-08T18:29:52;12.73;;;7.70;;
51020;SDS011;38907;45.562;8.856;2023-04-08T18:34:56;11.63;;;7.70;;
51020;SDS011;38907;45.562;8.856;2023-04-08T18:39:58;17.90;;;11.23;;
51020;SDS011;38907;45.562;8.856;2023-04-08T18:45:01;18.90;;;12.63;;
51020;SDS011;38907;45.562;8.856;2023-04-08T18:50:05;17.63;;;12.33;;
51020;SDS011;38907;45.562;8.856;2023-04-08T18:55:08;14.43;;;10.23;;
51020;SDS011;38907;45.562;8.856;2023-04-08T19:00:11;17.40;;;9.53;;
51020;SDS011;38907;45.562;8.856;2023-04-08T19:05:14;15.60;;;9.27;;
51020;SDS011;38907;45.562;8.856;2023-04-08T19:10:16;16.70;;;10.30;;
51020;SDS011;38907;45.562;8.856;2023-04-08T19:15:19;15.60;;;10.13;;
51020;SDS011;38907;45.562;8.856;2023-04-08T19:20:22;20.67;;;10.40;;
51020;SDS011;38907;45.562;8.856;2023-04-08T19:25:24;17.63;;;9.77;;
51020;SDS011;38907;45.562;8.856;2023-04-08T19:30:27;20.52;;;9.60;;
51020;SDS011;38907;45.562;8.856;2023-04-08T19:35:30;26.23;;;13.75;;
51020;SDS011;38907;45.562;8.856;2023-04-08T19:40:32;28.77;;;16.15;;
51020;SDS011;38907;45.562;8.856;2023-04-08T19:45:34;32.83;;;16.60;;
51020;SDS011;38907;45.562;8.856;2023-04-08T19:50:38;34.10;;;17.80;;
51020;SDS011;38907;45.562;8.856;2023-04-08T19:55:40;23.27;;;15.07;;
51020;SDS011;38907;45.562;8.856;2023-04-08T20:00:43;29.67;;;15.10;;
51020;SDS011;38907;45.562;8.856;2023-04-08T20:05:47;23.63;;;14.38;;
51020;SDS011;38907;45.562;8.856;2023-04-08T20:10:49;23.67;;;13.63;;
51020;SDS011;38907;45.562;8.856;2023-04-08T20:15:52;24.08;;;14.82;;
51020;SDS011;38907;45.562;8.856;2023-04-08T20:20:57;25.83;;;13.55;;
51020;SDS011;38907;45.562;8.856;2023-04-08T20:25:59;19.15;;;12.07;;
51020;SDS011;38907;45.562;8.856;2023-04-08T20:31:01;20.02;;;11.80;;
51020;SDS011;38907;45.562;8.856;2023-04-08T20:36:05;18.95;;;12.73;;
51020;SDS011;38907;45.562;8.856;2023-04-08T20:41:07;19.63;;;12.05;;
51020;SDS011;38907;45.562;8.856;2023-04-08T20:46:10;19.67;;;13.37;;
51020;SDS011;38907;45.562;8.856;2023-04-08T20:51:16;19.83;;;13.23;;
51020;SDS011;38907;45.562;8.856;2023-04-08T20:56:18;23.05;;;14.32;;
51020;SDS011;38907;45.562;8.856;2023-04-08T21:01:20;20.77;;;13.77;;
51020;SDS011;38907;45.562;8.856;2023-04-08T21:06:24;20.30;;;13.70;;
51020;SDS011;38907;45.562;8.856;2023-04-08T21:11:26;21.02;;;13.40;;
51020;SDS011;38907;45.562;8.856;2023-04-08T21:16:29;21.52;;;13.93;;
51020;SDS011;38907;45.562;8.856;2023-04-08T21:21:32;23.05;;;14.50;;
51020;SDS011;38907;45.562;8.856;2023-04-08T21:31:36;20.67;;;13.88;;
51020;SDS011;38907;45.562;8.856;2023-04-08T21:36:40;22.43;;;15.27;;
51020;SDS011;38907;45.562;8.856;2023-04-08T21:46:45;24.20;;;15.55;;
51020;SDS011;38907;45.562;8.856;2023-04-08T21:51:50;20.65;;;13.52;;
51020;SDS011;38907;45.562;8.856;2023-04-08T22:01:55;20.05;;;14.30;;
51020;SDS011;38907;45.562;8.856;2023-04-08T22:07:00;23.83;;;13.95;;
51020;SDS011;38907;45.562;8.856;2023-04-08T22:17:04;19.58;;;13.45;;
51020;SDS011;38907;45.562;8.856;2023-04-08T22:22:07;19.90;;;13.77;;
51020;SDS011;38907;45.562;8.856;2023-04-08T22:32:11;16.70;;;11.50;;
51020;SDS011;38907;45.562;8.856;2023-04-08T22:37:15;18.55;;;12.30;;
